This is the latest recevied weather packets stored in our database for station/object DL1NER. If no packets are shown the sender has not sent any weather packets the latest 10 day(s).
| Time | Temp. | Humidity | Pressure | Rain* | Wind** | Luminosity | Snow |
|---|---|---|---|---|---|---|---|
| 1777803010 | 23.33° C | 38% | 1014.7 hPa | 0 mm | - | 0 W/m² | - |
| 1777802410 | 23.33° C | 39% | 1015.1 hPa | 0 mm | - | 0 W/m² | - |
| 1777801810 | 23.33° C | 39% | 1015.1 hPa | 0 mm | - | 0 W/m² | - |
| 1777801210 | 22.22° C | 42% | 1015.3 hPa | 0 mm | - | 0 W/m² | - |
| 1777800611 | 22.22° C | 43% | 1015.4 hPa | 0 mm | - | 0 W/m² | - |
| 1777800011 | 22.22° C | 43% | 1015.4 hPa | 0 mm | - | 0 W/m² | - |
| 1777798812 | 21.67° C | 44% | 1015.4 hPa | 0 mm | - | 0 W/m² | - |
| 1777798212 | 21.67° C | 44% | 1015.4 hPa | 0 mm | - | 0 W/m² | - |
| 1777797612 | 21.11° C | 47% | 1015.4 hPa | 0 mm | - | 0 W/m² | - |
| 1777797012 | 21.11° C | 41% | 1015.5 hPa | 0 mm | - | 0 W/m² | - |
| 1777796411 | 20.56° C | 45% | 1015.5 hPa | 0 mm | - | 0 W/m² | - |
| 1777795813 | 20.56° C | 44% | 1015.5 hPa | 0 mm | - | 0 W/m² | - |
| 1777795212 | 19.44° C | 47% | 1015.4 hPa | 0 mm | - | 0 W/m² | - |
| 1777794612 | 20° C | 46% | 1015.5 hPa | 0 mm | - | 0 W/m² | - |
| 1777794013 | 19.44° C | 45% | 1015.5 hPa | 0 mm | - | 0 W/m² | - |
| 1777793412 | 18.89° C | 47% | 1015.5 hPa | 0 mm | - | 0 W/m² | - |
| 1777792811 | 18.33° C | 46% | 1015.5 hPa | 0 mm | - | 0 W/m² | - |
| 1777792211 | 17.78° C | 46% | 1015.5 hPa | 0 mm | - | 0 W/m² | - |
| 1777791611 | 16.67° C | 49% | 1015.6 hPa | 0 mm | - | 0 W/m² | - |
| 1777791011 | 16.11° C | 47% | 1015.6 hPa | 0 mm | - | 0 W/m² | - |
| 1777790411 | 15° C | 49% | 1015.6 hPa | 0 mm | - | 0 W/m² | - |
| 1777789811 | 13.89° C | 53% | 1015.7 hPa | 0 mm | - | 0 W/m² | - |
| 1777789211 | 12.22° C | 58% | 1015.7 hPa | 0 mm | - | 0 W/m² | - |
| 1777788611 | 11.67° C | 61% | 1015.8 hPa | 0 mm | - | 0 W/m² | - |
| 1777788010 | 10.56° C | 64% | 1015.8 hPa | 0 mm | - | 0 W/m² | - |
* Rain latest hour (hover to see other rain measurements)
** Current wind speed in m/s (hover to see current wind gust speed)